Time;durP1;ratioP1;P1;durP2;ratioP2;P2;SDS_P1;SDS_P2;PMS_P1;PMS_P2;Temp;Humidity;BMP_temperature;BMP_pressure;BME280_temperature;BME280_humidity;BME280_pressure;Samples;Min_cycle;Max_cycle;Signal;HPM_P1;HPM_P2
2022/04/23 00:00:51;;;;;;;4.50;4.27;;;19.00;43.80;;;;;;5061233;28;20244;-55
2022/04/23 00:03:18;;;;;;;5.00;4.80;;;19.00;43.80;;;;;;5058761;28;20942;-55
2022/04/23 00:05:44;;;;;;;4.67;4.47;;;19.00;43.80;;;;;;5061171;28;20251;-55
2022/04/23 00:08:10;;;;;;;4.80;4.60;;;19.00;43.80;;;;;;5060677;28;20843;-56
2022/04/23 00:10:36;;;;;;;4.60;4.30;;;18.90;43.70;;;;;;5056303;28;20430;-55
2022/04/23 00:13:04;;;;;;;5.17;4.83;;;18.90;43.70;;;;;;5061251;28;20535;-56
2022/04/23 00:15:37;;;;;;;4.80;4.50;;;18.90;44.50;;;;;;5062645;28;20682;-56
2022/04/23 00:18:10;;;;;;;4.67;4.47;;;19.00;43.80;;;;;;5055794;28;20491;-56
2022/04/23 00:20:37;;;;;;;5.33;5.03;;;18.90;43.70;;;;;;5061909;28;20551;-56
2022/04/23 00:23:04;;;;;;;5.20;4.90;;;18.90;43.70;;;;;;5046347;28;20859;-56
2022/04/23 00:25:31;;;;;;;4.80;4.50;;;18.90;43.70;;;;;;5062371;28;20965;-56
2022/04/23 00:27:56;;;;;;;5.03;4.73;;;18.90;43.70;;;;;;5056837;28;20451;-57
2022/04/23 00:30:22;;;;;;;4.30;4.10;;;18.90;43.70;;;;;;5063152;28;20424;-56
2022/04/23 00:32:48;;;;;;;4.67;4.30;;;18.90;43.70;;;;;;5056426;28;20229;-56
2022/04/23 00:35:17;;;;;;;4.20;4.00;;;18.90;43.70;;;;;;5057549;28;20285;-57
2022/04/23 00:37:47;;;;;;;4.37;4.10;;;18.90;43.70;;;;;;5061403;28;20228;-57
2022/04/23 00:40:19;;;;;;;4.90;4.60;;;18.90;43.70;;;;;;5039632;28;20445;-57
2022/04/23 00:42:51;;;;;;;4.47;4.27;;;18.90;43.70;;;;;;5060164;28;20426;-57
2022/04/23 00:45:17;;;;;;;4.80;4.60;;;18.90;43.70;;;;;;5063849;28;20930;-57
2022/04/23 00:47:42;;;;;;;5.30;5.00;;;18.90;43.70;;;;;;5059607;28;20458;-56
2022/04/23 00:50:09;;;;;;;5.30;4.90;;;18.90;43.70;;;;;;5057940;28;20224;-56
2022/04/23 00:52:35;;;;;;;5.00;4.70;;;18.90;43.70;;;;;;5063560;28;20271;-56
2022/04/23 00:55:03;;;;;;;5.07;4.77;;;18.90;43.70;;;;;;5055061;28;20448;-58
2022/04/23 00:57:28;;;;;;;4.77;4.57;;;18.90;43.80;;;;;;5058829;28;20226;-56
2022/04/23 00:59:54;;;;;;;5.10;4.80;;;18.90;43.70;;;;;;5059655;28;20766;-57
2022/04/23 01:02:21;;;;;;;5.57;5.17;;;18.90;43.70;;;;;;5059244;28;20226;-56
2022/04/23 01:04:47;;;;;;;4.00;3.80;;;18.90;43.70;;;;;;5059138;28;20234;-56
2022/04/23 01:07:13;;;;;;;4.37;4.17;;;18.90;43.70;;;;;;5061281;28;20788;-56
2022/04/23 01:09:39;;;;;;;5.33;5.03;;;18.90;43.70;;;;;;5059445;28;20365;-56
2022/04/23 01:12:05;;;;;;;4.80;4.60;;;18.90;43.70;;;;;;5057387;28;20245;-56
2022/04/23 01:14:31;;;;;;;4.70;4.50;;;18.90;43.70;;;;;;5057802;28;20926;-57
2022/04/23 01:16:57;;;;;;;5.17;4.97;;;18.90;43.70;;;;;;5060671;28;20423;-57
2022/04/23 01:19:23;;;;;;;4.30;4.10;;;18.90;43.70;;;;;;5061944;28;20229;-56
2022/04/23 01:21:48;;;;;;;4.50;4.30;;;18.90;43.70;;;;;;5061905;28;20214;-56
2022/04/23 01:24:15;;;;;;;4.83;4.63;;;18.90;43.70;;;;;;5062367;28;20313;-56
2022/04/23 01:26:41;;;;;;;4.83;4.53;;;18.90;43.70;;;;;;5055494;28;20218;-56
2022/04/23 01:29:06;;;;;;;4.90;4.60;;;18.90;44.50;;;;;;5062700;28;20421;-56
2022/04/23 01:31:32;;;;;;;4.73;4.33;;;18.90;43.70;;;;;;5059769;28;20218;-57
2022/04/23 01:33:59;;;;;;;4.70;4.50;;;18.90;43.70;;;;;;5058325;28;20293;-57
2022/04/23 01:36:24;;;;;;;5.00;4.80;;;18.90;43.70;;;;;;5061713;28;21120;-56
2022/04/23 01:38:50;;;;;;;4.57;4.27;;;18.90;43.70;;;;;;5063548;28;20422;-56
2022/04/23 01:41:16;;;;;;;4.40;4.20;;;18.90;43.70;;;;;;5059155;28;20230;-57
2022/04/23 01:43:41;;;;;;;4.37;4.17;;;18.90;43.70;;;;;;5063342;28;20280;-57
2022/04/23 01:46:07;;;;;;;4.63;4.33;;;18.90;43.70;;;;;;5063189;28;20725;-57
2022/04/23 01:48:33;;;;;;;4.47;4.27;;;18.90;43.70;;;;;;5062160;28;20221;-56
2022/04/23 01:50:59;;;;;;;4.47;4.27;;;18.90;43.70;;;;;;5059925;28;20217;-56
2022/04/23 01:53:25;;;;;;;4.90;4.70;;;18.90;43.70;;;;;;5064402;28;20458;-56
2022/04/23 01:55:54;;;;;;;4.57;4.30;;;18.90;43.80;;;;;;5060098;28;20218;-57
2022/04/23 01:58:21;;;;;;;4.87;4.67;;;18.90;43.70;;;;;;5044833;28;20559;-57
2022/04/23 02:00:48;;;;;;;4.67;4.43;;;18.90;43.70;;;;;;5067792;28;20522;-56
2022/04/23 02:03:13;;;;;;;5.00;4.80;;;18.90;43.70;;;;;;5046143;28;20425;-57
2022/04/23 02:05:39;;;;;;;4.77;4.47;;;18.90;43.70;;;;;;5063264;28;21003;-57
2022/04/23 02:08:05;;;;;;;4.40;4.20;;;18.90;43.70;;;;;;5067026;28;20590;-56
2022/04/23 02:10:31;;;;;;;4.60;4.30;;;18.90;43.70;;;;;;5060748;28;20265;-57
2022/04/23 02:12:57;;;;;;;4.53;4.33;;;18.90;43.70;;;;;;5060523;28;20600;-56
2022/04/23 02:15:23;;;;;;;5.17;4.87;;;18.90;43.70;;;;;;5059365;28;20226;-56
2022/04/23 02:17:49;;;;;;;4.57;4.37;;;18.90;43.70;;;;;;5042341;28;20441;-57
2022/04/23 02:20:16;;;;;;;4.47;4.23;;;18.90;43.70;;;;;;5065421;28;20224;-56
2022/04/23 02:22:44;;;;;;;4.57;4.37;;;18.90;43.70;;;;;;5065730;28;20227;-56
2022/04/23 02:25:11;;;;;;;4.97;4.67;;;18.90;43.70;;;;;;5062270;28;20445;-58
2022/04/23 02:27:54;;;;;;;5.07;4.77;;;18.90;43.70;;;;;;5061716;28;20425;-57
2022/04/23 02:30:21;;;;;;;4.60;4.37;;;18.90;43.70;;;;;;5065547;28;20462;-56
2022/04/23 02:32:48;;;;;;;4.90;4.60;;;18.90;43.70;;;;;;5061258;28;20421;-56
2022/04/23 02:35:16;;;;;;;4.90;4.67;;;18.90;43.70;;;;;;5045060;28;20775;-57
2022/04/23 02:37:42;;;;;;;5.40;5.10;;;18.90;43.70;;;;;;5062631;28;20425;-56
2022/04/23 02:40:08;;;;;;;4.07;3.87;;;18.90;43.70;;;;;;5059869;28;20541;-56
2022/04/23 02:42:36;;;;;;;4.90;4.60;;;18.90;43.70;;;;;;5065829;28;20823;-56
2022/04/23 02:45:03;;;;;;;4.67;4.43;;;18.90;43.70;;;;;;5063660;28;20432;-57
2022/04/23 02:47:30;;;;;;;4.63;4.33;;;18.90;43.70;;;;;;5056291;28;20429;-56
2022/04/23 02:49:55;;;;;;;4.10;3.90;;;18.90;43.70;;;;;;5065900;28;20456;-57
2022/04/23 02:52:21;;;;;;;5.13;4.57;;;18.90;43.70;;;;;;5063090;28;20545;-57
2022/04/23 02:54:47;;;;;;;4.80;4.60;;;18.90;43.70;;;;;;5057995;28;20210;-57
2022/04/23 02:57:12;;;;;;;5.20;4.80;;;18.90;43.70;;;;;;5063699;28;20789;-56
2022/04/23 02:59:39;;;;;;;4.73;4.43;;;18.90;43.70;;;;;;5064466;28;20215;-56
2022/04/23 03:02:07;;;;;;;5.37;5.10;;;18.90;43.70;;;;;;5059066;28;20297;-56
2022/04/23 03:04:33;;;;;;;4.50;4.30;;;18.90;43.70;;;;;;5058003;28;20442;-56
2022/04/23 03:06:58;;;;;;;4.60;4.40;;;18.90;43.70;;;;;;5063769;28;20424;-57
2022/04/23 03:09:24;;;;;;;4.30;4.10;;;18.90;43.70;;;;;;5063650;28;20229;-56
2022/04/23 03:11:49;;;;;;;4.53;4.33;;;18.90;43.70;;;;;;5061671;28;20270;-57
2022/04/23 03:14:15;;;;;;;4.60;4.30;;;18.90;43.70;;;;;;5060130;28;20218;-56
2022/04/23 03:16:41;;;;;;;4.63;4.40;;;18.90;43.70;;;;;;5064647;28;20297;-57
2022/04/23 03:19:07;;;;;;;4.60;4.40;;;18.90;43.70;;;;;;5059028;28;20556;-58
2022/04/23 03:21:32;;;;;;;4.20;4.00;;;18.90;43.70;;;;;;5044038;28;21200;-56
2022/04/23 03:23:58;;;;;;;4.63;4.40;;;18.90;43.70;;;;;;5060787;28;20233;-56
2022/04/23 03:26:23;;;;;;;4.57;4.30;;;18.90;43.70;;;;;;5058570;28;20221;-58
2022/04/23 03:28:49;;;;;;;5.00;4.70;;;18.90;43.70;;;;;;5063405;28;20218;-56
2022/04/23 03:31:14;;;;;;;4.20;4.00;;;18.90;43.70;;;;;;5054912;28;20245;-56
2022/04/23 03:33:40;;;;;;;4.30;4.10;;;18.90;43.70;;;;;;5063804;28;20292;-57
2022/04/23 03:36:06;;;;;;;4.50;4.30;;;18.90;43.70;;;;;;5063862;28;20498;-57
2022/04/23 03:38:32;;;;;;;4.33;4.13;;;18.90;43.70;;;;;;5064092;28;20229;-56
2022/04/23 03:40:58;;;;;;;4.50;4.30;;;18.90;43.70;;;;;;5062808;28;20226;-56
2022/04/23 03:43:27;;;;;;;4.33;4.13;;;18.90;43.70;;;;;;5058595;28;20426;-56
2022/04/23 03:45:53;;;;;;;4.43;4.23;;;18.90;43.70;;;;;;5059558;28;20477;-56
2022/04/23 03:48:19;;;;;;;4.30;4.10;;;18.90;43.70;;;;;;5061369;28;20918;-56
2022/04/23 03:50:45;;;;;;;4.20;4.00;;;18.90;43.70;;;;;;5063255;28;20455;-56
2022/04/23 03:53:11;;;;;;;4.90;4.70;;;18.90;43.70;;;;;;5059535;28;20214;-56
2022/04/23 03:55:36;;;;;;;4.33;4.13;;;18.80;43.60;;;;;;5058830;28;20462;-56
2022/04/23 03:58:02;;;;;;;4.13;3.93;;;18.90;43.70;;;;;;5062685;28;20214;-57
2022/04/23 04:00:31;;;;;;;4.00;3.80;;;18.90;43.70;;;;;;5056546;28;20217;-56
2022/04/23 04:02:57;;;;;;;4.40;4.20;;;18.90;43.70;;;;;;5060297;28;20241;-57
2022/04/23 04:05:24;;;;;;;4.37;4.07;;;18.90;43.70;;;;;;5057591;28;20467;-57
2022/04/23 04:07:50;;;;;;;4.10;3.90;;;18.90;43.70;;;;;;5060862;28;20478;-57
2022/04/23 04:10:18;;;;;;;4.93;4.73;;;18.90;43.70;;;;;;5055574;28;20437;-57
2022/04/23 04:12:44;;;;;;;4.67;4.47;;;18.90;43.70;;;;;;5058037;28;20472;-57
2022/04/23 04:15:11;;;;;;;4.43;4.23;;;18.90;43.70;;;;;;5046055;28;20413;-56
2022/04/23 04:17:37;;;;;;;3.90;3.70;;;18.90;43.70;;;;;;5058061;28;20430;-58
2022/04/23 04:20:07;;;;;;;5.00;4.70;;;18.90;43.70;;;;;;5059270;28;20512;-57
2022/04/23 04:22:33;;;;;;;4.03;3.83;;;18.90;43.70;;;;;;5060059;28;20440;-56
2022/04/23 04:25:00;;;;;;;4.07;3.87;;;18.90;43.70;;;;;;5059543;28;20806;-57
2022/04/23 04:27:26;;;;;;;4.03;3.83;;;18.90;43.70;;;;;;5060546;28;20426;-57
2022/04/23 04:29:51;;;;;;;4.50;4.30;;;18.90;43.70;;;;;;5058472;28;20438;-57
2022/04/23 04:32:17;;;;;;;4.80;4.60;;;18.90;43.70;;;;;;5058897;28;20217;-56
2022/04/23 04:34:42;;;;;;;4.40;4.20;;;18.90;43.70;;;;;;5062159;28;20276;-56
2022/04/23 04:37:09;;;;;;;4.17;3.97;;;18.90;43.70;;;;;;5062173;28;20215;-57
2022/04/23 04:39:42;;;;;;;4.30;4.10;;;18.90;43.70;;;;;;5057298;28;20225;-56
2022/04/23 04:42:08;;;;;;;4.17;3.97;;;18.80;43.60;;;;;;5061773;28;20432;-57
2022/04/23 04:44:35;;;;;;;4.13;3.93;;;18.90;43.70;;;;;;5059614;28;20430;-57
2022/04/23 04:47:00;;;;;;;4.50;4.30;;;18.90;43.70;;;;;;5053547;28;21203;-57
2022/04/23 04:49:26;;;;;;;4.20;3.90;;;18.90;43.70;;;;;;5062787;28;20513;-56
2022/04/23 04:51:52;;;;;;;4.13;3.93;;;18.90;43.70;;;;;;5057575;28;20278;-57
2022/04/23 04:54:18;;;;;;;4.27;4.00;;;18.90;43.70;;;;;;5059272;28;20225;-57
2022/04/23 04:56:51;;;;;;;5.07;4.77;;;18.90;43.70;;;;;;5055912;28;20452;-58
2022/04/23 04:59:17;;;;;;;4.53;4.30;;;18.90;43.70;;;;;;5059715;28;20221;-57
2022/04/23 05:01:43;;;;;;;4.90;4.60;;;18.90;43.70;;;;;;5051943;28;20780;-57
2022/04/23 05:04:09;;;;;;;4.40;4.20;;;18.80;43.60;;;;;;5061942;28;20421;-57
2022/04/23 05:06:35;;;;;;;4.57;4.27;;;18.90;43.70;;;;;;5060776;28;20422;-56
2022/04/23 05:09:01;;;;;;;4.03;3.83;;;18.90;43.70;;;;;;5062630;28;20464;-56
2022/04/23 05:11:26;;;;;;;4.40;4.20;;;18.90;43.70;;;;;;5066863;28;20225;-56
2022/04/23 05:13:52;;;;;;;4.43;4.23;;;18.90;43.70;;;;;;5063986;28;20694;-56
2022/04/23 05:16:18;;;;;;;4.40;4.20;;;18.90;43.70;;;;;;5061504;28;20247;-57
2022/04/23 05:18:43;;;;;;;4.73;4.53;;;18.90;43.70;;;;;;5062560;28;20221;-56
2022/04/23 05:21:10;;;;;;;4.10;3.90;;;18.90;43.70;;;;;;5063058;28;20570;-56
2022/04/23 05:23:36;;;;;;;4.30;4.10;;;18.90;43.70;;;;;;5060039;28;20257;-58
2022/04/23 05:26:03;;;;;;;4.17;3.97;;;18.90;43.70;;;;;;5064571;28;20425;-56
2022/04/23 05:28:30;;;;;;;3.83;3.63;;;18.90;43.70;;;;;;5064654;28;20224;-56
2022/04/23 05:30:55;;;;;;;4.33;4.13;;;18.90;43.70;;;;;;5061190;28;20461;-56
2022/04/23 05:33:21;;;;;;;4.47;4.27;;;18.90;43.70;;;;;;5062708;28;20563;-56
2022/04/23 05:35:47;;;;;;;4.67;4.47;;;19.00;43.80;;;;;;5063699;28;20750;-57
2022/04/23 05:38:13;;;;;;;4.80;4.50;;;19.00;43.80;;;;;;5058319;28;20627;-56
2022/04/23 05:40:38;;;;;;;4.10;3.90;;;19.00;43.80;;;;;;5061420;28;20729;-57
2022/04/23 05:43:04;;;;;;;4.20;4.00;;;19.00;43.80;;;;;;5064678;28;20301;-56
2022/04/23 05:45:30;;;;;;;4.43;4.23;;;19.00;43.80;;;;;;5062734;28;20242;-57
2022/04/23 05:47:57;;;;;;;4.63;4.43;;;19.00;43.80;;;;;;5065273;28;20241;-56
2022/04/23 05:50:23;;;;;;;4.60;4.40;;;19.00;43.80;;;;;;5065681;28;20444;-56
2022/04/23 05:52:48;;;;;;;4.50;4.30;;;19.00;43.80;;;;;;5059127;28;20509;-56
2022/04/23 05:55:14;;;;;;;4.60;4.40;;;19.00;44.60;;;;;;5058937;28;20513;-56
2022/04/23 05:57:40;;;;;;;4.67;4.37;;;19.00;43.80;;;;;;5063778;28;20226;-56
2022/04/23 06:00:09;;;;;;;4.63;4.43;;;19.00;43.80;;;;;;5059719;28;20238;-58
2022/04/23 06:02:35;;;;;;;4.57;4.37;;;19.00;43.80;;;;;;5061156;28;20222;-56
2022/04/23 06:05:00;;;;;;;4.13;3.93;;;19.00;43.80;;;;;;5065173;28;20442;-56
2022/04/23 06:07:26;;;;;;;4.93;4.63;;;19.00;43.80;;;;;;5064793;28;20234;-56
2022/04/23 06:09:52;;;;;;;4.17;3.97;;;19.00;43.80;;;;;;5065183;28;20336;-56
2022/04/23 06:12:17;;;;;;;4.53;4.33;;;19.00;43.80;;;;;;5061317;28;20229;-56
2022/04/23 06:14:44;;;;;;;4.70;4.50;;;19.00;43.80;;;;;;5062756;28;20222;-59
2022/04/23 06:17:12;;;;;;;4.60;4.40;;;19.00;43.80;;;;;;5062987;28;20659;-58
2022/04/23 06:19:41;;;;;;;4.30;4.10;;;19.00;43.80;;;;;;5066519;28;20432;-58
2022/04/23 06:22:07;;;;;;;4.90;4.60;;;19.00;43.80;;;;;;5058549;28;20561;-57
2022/04/23 06:24:33;;;;;;;4.27;4.07;;;19.00;43.80;;;;;;5060003;28;20562;-56
2022/04/23 06:26:59;;;;;;;4.63;4.43;;;19.00;43.80;;;;;;5064768;28;20671;-57
2022/04/23 06:29:25;;;;;;;4.60;4.30;;;19.10;43.90;;;;;;5064025;28;20774;-59
2022/04/23 06:31:50;;;;;;;4.53;4.33;;;19.10;43.90;;;;;;5061956;28;20520;-57
2022/04/23 06:34:16;;;;;;;4.70;4.50;;;19.10;43.80;;;;;;5064198;28;20228;-58
2022/04/23 06:36:42;;;;;;;4.20;4.00;;;19.10;43.90;;;;;;5063239;28;20214;-58
2022/04/23 06:39:08;;;;;;;4.27;4.07;;;19.20;44.00;;;;;;5063255;28;20578;-59
2022/04/23 06:41:33;;;;;;;4.60;4.40;;;19.20;44.00;;;;;;5059928;28;20266;-59
2022/04/23 06:43:59;;;;;;;4.57;4.27;;;19.20;44.00;;;;;;5059771;28;20777;-58
2022/04/23 06:46:25;;;;;;;4.30;4.10;;;19.10;43.90;;;;;;5060049;28;20242;-57
2022/04/23 06:48:50;;;;;;;4.40;4.20;;;19.10;43.80;;;;;;5060116;28;20249;-57
2022/04/23 06:51:16;;;;;;;4.83;4.63;;;19.20;43.90;;;;;;5061853;28;20627;-58
2022/04/23 06:53:42;;;;;;;4.87;4.57;;;19.20;44.00;;;;;;5059553;28;20222;-59
2022/04/23 06:56:08;;;;;;;4.50;4.30;;;19.10;43.90;;;;;;5064490;28;20225;-58
2022/04/23 06:58:34;;;;;;;4.70;4.40;;;19.10;43.80;;;;;;5062241;28;20845;-58
2022/04/23 07:01:00;;;;;;;5.03;4.73;;;19.10;44.60;;;;;;5057577;28;20648;-57
2022/04/23 07:03:26;;;;;;;4.40;4.20;;;19.20;43.90;;;;;;5064278;28;20489;-58
2022/04/23 07:05:51;;;;;;;4.63;4.43;;;19.10;43.80;;;;;;5064451;28;21418;-57
2022/04/23 07:08:17;;;;;;;4.10;3.90;;;19.20;44.00;;;;;;5059122;28;20218;-57
2022/04/23 07:10:46;;;;;;;4.73;4.47;;;19.10;43.80;;;;;;5059600;28;20253;-57
2022/04/23 07:13:12;;;;;;;4.47;4.23;;;19.10;43.90;;;;;;5064254;28;20419;-57
2022/04/23 07:15:39;;;;;;;4.50;4.30;;;19.10;43.90;;;;;;5057696;28;20831;-57
2022/04/23 07:18:07;;;;;;;4.30;4.00;;;19.10;43.90;;;;;;5061737;28;20447;-57
2022/04/23 07:20:33;;;;;;;4.27;4.07;;;19.20;44.00;;;;;;5061824;28;20479;-57
2022/04/23 07:25:43;;;;;;;4.47;4.17;;;19.20;44.00;;;;;;5060774;28;20440;-57
2022/04/23 07:28:09;;;;;;;4.00;3.80;;;19.10;43.80;;;;;;5065434;28;20816;-57
2022/04/23 07:30:35;;;;;;;4.43;4.20;;;19.10;43.90;;;;;;5056140;28;20215;-58
2022/04/23 07:33:01;;;;;;;4.37;4.07;;;19.10;43.90;;;;;;5062373;28;20354;-57
2022/04/23 07:38:21;;;;;;;4.43;4.23;;;19.10;43.80;;;;;;5063072;28;20469;-57
2022/04/23 07:40:51;;;;;;;4.90;4.63;;;19.10;43.80;;;;;;5060328;28;20421;-57
2022/04/23 07:43:17;;;;;;;5.83;4.83;;;19.10;43.90;;;;;;5061757;28;20417;-57
2022/04/23 07:45:45;;;;;;;5.07;4.67;;;19.10;43.90;;;;;;5059386;28;20445;-58
2022/04/23 07:48:12;;;;;;;4.40;4.20;;;19.10;43.80;;;;;;5060808;28;20433;-57
2022/04/23 07:50:39;;;;;;;4.50;4.23;;;19.10;43.90;;;;;;5059212;28;20418;-58
2022/04/23 07:53:07;;;;;;;4.40;4.10;;;19.10;43.80;;;;;;5061133;28;20496;-62
2022/04/23 07:55:35;;;;;;;4.40;4.10;;;19.10;43.90;;;;;;5061187;28;20433;-57
2022/04/23 07:58:04;;;;;;;4.10;3.90;;;19.10;44.60;;;;;;5056771;28;20434;-59
2022/04/23 08:00:34;;;;;;;4.27;4.07;;;19.10;43.90;;;;;;5057382;28;20463;-59
2022/04/23 08:03:02;;;;;;;4.60;4.30;;;19.10;43.80;;;;;;5060489;28;20454;-59
2022/04/23 08:05:29;;;;;;;4.20;3.90;;;19.10;43.90;;;;;;5061112;28;20876;-57
2022/04/23 08:07:55;;;;;;;5.60;4.70;;;19.20;44.00;;;;;;5057480;28;20459;-57
2022/04/23 08:10:20;;;;;;;4.50;4.30;;;19.10;43.90;;;;;;5064393;28;20935;-58
2022/04/23 08:12:47;;;;;;;4.50;4.07;;;19.20;43.90;;;;;;5064835;28;20225;-58
2022/04/23 08:15:12;;;;;;;3.87;3.67;;;19.20;43.60;;;;;;5059693;28;20233;-58
2022/04/23 08:17:39;;;;;;;4.43;4.23;;;19.20;43.60;;;;;;5058832;28;20418;-58
2022/04/23 08:20:06;;;;;;;5.07;4.70;;;19.20;43.60;;;;;;5060187;28;20226;-57
2022/04/23 08:22:31;;;;;;;4.40;4.10;;;19.20;43.60;;;;;;5061226;28;20425;-57
2022/04/23 08:24:57;;;;;;;6.10;4.43;;;19.20;43.60;;;;;;5060015;28;20433;-56
2022/04/23 08:27:22;;;;;;;5.10;4.70;;;19.20;43.80;;;;;;5059252;28;20224;-56
2022/04/23 08:32:33;;;;;;;7.50;4.43;;;19.20;43.70;;;;;;5060677;28;20320;-55
2022/04/23 08:34:59;;;;;;;4.20;3.90;;;19.20;43.90;;;;;;5060526;28;20763;-55
2022/04/23 08:37:25;;;;;;;6.00;3.90;;;19.10;43.90;;;;;;5054093;28;20237;-55
2022/04/23 08:39:51;;;;;;;6.20;5.70;;;19.20;44.00;;;;;;5062350;28;20233;-55
2022/04/23 08:42:17;;;;;;;6.33;5.93;;;19.20;43.60;;;;;;5066482;28;20226;-56
2022/04/23 08:44:43;;;;;;;7.43;4.90;;;19.20;43.20;;;;;;5057503;28;20358;-57
2022/04/23 08:47:11;;;;;;;4.40;4.20;;;19.30;43.10;;;;;;5063353;28;20446;-57
2022/04/23 08:49:40;;;;;;;5.20;4.80;;;19.30;43.10;;;;;;5061598;28;20450;-55
2022/04/23 08:52:15;;;;;;;4.07;3.87;;;19.30;43.20;;;;;;5054148;28;20448;-58
2022/04/23 08:54:41;;;;;;;4.10;3.90;;;19.20;43.10;;;;;;5057212;28;20434;-58
2022/04/23 08:57:07;;;;;;;4.53;4.33;;;19.20;43.30;;;;;;5063779;28;20413;-58
2022/04/23 08:59:33;;;;;;;4.77;4.47;;;19.20;43.30;;;;;;5059408;28;22197;-57
2022/04/23 09:02:00;;;;;;;4.40;4.00;;;19.20;43.30;;;;;;5061134;28;20636;-57
2022/04/23 09:04:26;;;;;;;4.70;4.40;;;19.20;43.50;;;;;;5059212;28;20470;-57
2022/04/23 09:06:52;;;;;;;4.63;4.43;;;19.20;43.60;;;;;;5057023;28;20421;-57
2022/04/23 09:09:20;;;;;;;5.03;4.63;;;19.20;43.60;;;;;;5058101;28;20436;-57
2022/04/23 09:11:57;;;;;;;4.50;4.20;;;19.20;43.60;;;;;;5059890;28;20939;-57
2022/04/23 09:14:23;;;;;;;4.40;4.10;;;19.20;43.60;;;;;;5055459;28;20436;-57
2022/04/23 09:25:13;;;;;;;4.60;4.30;;;19.20;43.90;;;;;;5061079;28;20565;-57
2022/04/23 09:27:42;;;;;;;4.80;4.50;;;19.20;44.80;;;;;;5061580;28;20936;-57
2022/04/23 09:30:12;;;;;;;4.33;4.13;;;19.20;44.00;;;;;;5057917;28;20423;-57
2022/04/23 09:33:00;;;;;;;5.00;4.70;;;19.20;43.90;;;;;;5062402;28;20460;-58
2022/04/23 09:35:26;;;;;;;5.40;5.10;;;19.20;44.00;;;;;;5057188;28;20791;-58
2022/04/23 09:40:36;;;;;;;5.10;4.80;;;19.20;43.90;;;;;;5063578;28;20225;-57
2022/04/23 09:43:05;;;;;;;4.80;4.50;;;19.20;44.00;;;;;;5059495;28;20455;-58
2022/04/23 09:45:32;;;;;;;4.53;4.33;;;19.10;43.90;;;;;;5057516;28;20249;-58
2022/04/23 09:48:04;;;;;;;6.00;5.60;;;19.10;43.90;;;;;;5059984;28;20657;-57
2022/04/23 09:50:36;;;;;;;5.70;5.40;;;19.10;43.90;;;;;;5062715;28;20430;-57
2022/04/23 09:53:10;;;;;;;5.80;5.40;;;19.20;44.00;;;;;;5059313;28;20797;-57
2022/04/23 09:55:36;;;;;;;5.63;5.30;;;19.10;43.90;;;;;;5060417;28;20482;-58
2022/04/23 09:58:06;;;;;;;5.70;5.30;;;19.10;43.90;;;;;;5065231;28;20896;-57
2022/04/23 10:00:35;;;;;;;5.60;5.30;;;19.10;43.80;;;;;;5064774;28;20457;-57
2022/04/23 10:03:03;;;;;;;5.87;5.57;;;19.10;43.90;;;;;;5060545;28;20537;-60
2022/04/23 10:05:29;;;;;;;7.13;6.63;;;19.20;44.00;;;;;;5058614;28;20503;-57
2022/04/23 10:07:57;;;;;;;7.87;7.17;;;19.10;43.90;;;;;;5056123;28;20904;-56
2022/04/23 10:10:26;;;;;;;6.73;6.33;;;19.20;43.50;;;;;;5061755;28;20980;-58
2022/04/23 10:12:54;;;;;;;6.10;5.70;;;19.20;43.30;;;;;;5057549;28;20418;-60
2022/04/23 10:15:21;;;;;;;7.10;6.27;;;19.20;43.30;;;;;;5065750;28;20830;-58
2022/04/23 10:17:48;;;;;;;6.43;6.00;;;19.20;43.30;;;;;;5067374;28;20907;-61
2022/04/23 10:20:14;;;;;;;6.83;6.43;;;19.20;43.50;;;;;;5064141;28;20418;-61
2022/04/23 10:23:09;;;;;;;6.93;6.43;;;19.20;43.50;;;;;;5068827;28;20459;-58
2022/04/23 10:26:03;;;;;;;8.73;7.90;;;19.20;43.60;;;;;;5058927;28;20813;-58
2022/04/23 10:28:29;;;;;;;7.87;7.27;;;19.20;43.40;;;;;;5064458;28;20453;-58
2022/04/23 10:31:15;;;;;;;7.07;6.57;;;19.20;43.20;;;;;;5059748;28;20417;-57
2022/04/23 10:33:46;;;;;;;7.50;6.90;;;19.20;43.10;;;;;;5060363;28;20234;-57
2022/04/23 10:36:13;;;;;;;6.93;6.43;;;19.20;42.80;;;;;;5058797;28;20464;-58
2022/04/23 10:38:42;;;;;;;7.20;6.70;;;19.20;42.90;;;;;;5060921;28;20837;-59
2022/04/23 10:41:10;;;;;;;7.27;6.67;;;19.20;42.90;;;;;;5064678;28;20500;-59
2022/04/23 10:43:46;;;;;;;7.60;7.10;;;19.20;42.80;;;;;;5059247;28;20505;-59
2022/04/23 10:46:38;;;;;;;6.63;6.20;;;19.20;42.80;;;;;;5061385;28;20433;-58
2022/04/23 10:49:16;;;;;;;6.07;5.77;;;19.20;42.80;;;;;;5057599;28;20766;-58
2022/04/23 10:51:49;;;;;;;7.50;6.80;;;19.20;42.80;;;;;;5061384;28;20437;-58
2022/04/23 10:54:16;;;;;;;6.67;6.30;;;19.20;42.70;;;;;;5064425;28;20444;-57
2022/04/23 10:56:43;;;;;;;6.90;6.50;;;19.20;42.50;;;;;;5064564;28;20469;-60
2022/04/23 10:59:38;;;;;;;6.93;6.50;;;19.30;42.70;;;;;;5060039;28;20460;-58
2022/04/23 11:02:19;;;;;;;6.77;6.37;;;19.20;42.60;;;;;;5056961;28;20450;-57
2022/04/23 11:13:40;;;;;;;7.40;6.90;;;19.20;43.10;;;;;;5062962;28;20465;-59
2022/04/23 11:16:17;;;;;;;6.43;6.03;;;19.20;43.20;;;;;;5062670;28;20417;-58
2022/04/23 11:18:44;;;;;;;7.93;7.30;;;19.20;43.20;;;;;;5048817;28;21320;-60
2022/04/23 11:21:15;;;;;;;8.27;7.67;;;19.20;43.30;;;;;;5059602;28;20448;-59
2022/04/23 11:23:45;;;;;;;7.80;7.27;;;19.10;43.30;;;;;;5065098;28;20447;-60
2022/04/23 11:26:12;;;;;;;7.43;6.90;;;19.10;43.30;;;;;;5062768;28;20520;-59
2022/04/23 11:28:40;;;;;;;6.93;6.53;;;19.10;43.40;;;;;;5059698;28;20504;-56
2022/04/23 11:31:16;;;;;;;8.70;8.10;;;19.10;43.40;;;;;;5064217;28;20773;-58
2022/04/23 11:33:55;;;;;;;8.23;7.73;;;19.20;43.20;;;;;;5062576;28;20450;-57
2022/04/23 11:36:35;;;;;;;8.47;7.77;;;19.20;43.20;;;;;;5061171;28;20432;-57
2022/04/23 11:39:06;;;;;;;7.93;7.33;;;19.20;43.20;;;;;;5058939;28;20937;-57
2022/04/23 11:41:33;;;;;;;8.40;7.67;;;19.20;43.30;;;;;;5059166;28;20460;-58
2022/04/23 11:44:20;;;;;;;8.00;7.40;;;19.20;43.30;;;;;;5055969;28;20959;-57
2022/04/23 11:46:48;;;;;;;7.80;7.30;;;19.20;43.30;;;;;;5061170;28;21074;-57
2022/04/23 11:49:29;;;;;;;8.20;7.60;;;19.20;43.30;;;;;;5056178;28;20466;-59
2022/04/23 11:52:05;;;;;;;7.20;6.70;;;19.20;43.40;;;;;;5058713;28;20441;-58
2022/04/23 11:54:39;;;;;;;7.70;7.17;;;19.20;43.40;;;;;;5064499;28;20465;-58
2022/04/23 11:57:07;;;;;;;8.53;7.87;;;19.20;43.50;;;;;;5060248;28;20415;-58
2022/04/23 11:59:46;;;;;;;7.57;7.07;;;19.20;43.60;;;;;;5059267;28;20759;-58
2022/04/23 12:02:25;;;;;;;8.30;7.80;;;19.20;43.60;;;;;;5060900;28;20950;-58
2022/04/23 12:04:53;;;;;;;9.87;7.53;;;19.20;43.60;;;;;;5054549;28;20479;-59
2022/04/23 12:07:20;;;;;;;7.80;7.30;;;19.20;43.70;;;;;;5057769;28;20426;-57
2022/04/23 12:09:52;;;;;;;7.90;7.23;;;19.10;43.60;;;;;;5063849;28;20473;-59
2022/04/23 12:12:21;;;;;;;8.57;7.87;;;19.10;43.60;;;;;;5058787;28;20517;-58
2022/04/23 12:14:50;;;;;;;8.03;7.33;;;19.20;43.90;;;;;;5059139;28;20446;-58
2022/04/23 12:17:21;;;;;;;8.13;7.53;;;19.10;43.80;;;;;;5060937;28;20436;-62
2022/04/23 12:19:48;;;;;;;8.40;7.73;;;19.20;43.80;;;;;;5058456;28;20424;-58
2022/04/23 12:22:32;;;;;;;8.47;7.63;;;19.20;43.80;;;;;;5059168;28;20474;-61
2022/04/23 12:25:16;;;;;;;8.07;7.30;;;19.10;43.90;;;;;;5056360;28;20501;-57
2022/04/23 12:40:44;;;;;;;8.47;7.83;;;19.10;43.80;;;;;;5057471;28;20429;-58
2022/04/23 12:42:05;;;;;;;7.03;6.53;;;19.10;43.50;;;;;;5056432;28;20470;-60
2022/04/23 12:44:42;;;;;;;7.40;6.90;;;19.10;43.40;;;;;;5060740;28;20460;-58
2022/04/23 12:47:13;;;;;;;8.97;8.17;;;19.20;43.40;;;;;;5059724;28;20421;-59
2022/04/23 12:49:50;;;;;;;8.13;7.43;;;19.10;43.40;;;;;;5057149;28;20474;-58
2022/04/23 12:52:20;;;;;;;8.80;8.13;;;19.10;43.40;;;;;;5057352;28;20541;-60
2022/04/23 12:55:14;;;;;;;7.83;7.30;;;19.10;43.50;;;;;;5064264;28;20454;-58
2022/04/23 12:57:54;;;;;;;8.60;7.70;;;19.10;43.60;;;;;;5059711;28;20445;-57
2022/04/23 13:00:24;;;;;;;7.47;6.97;;;19.10;43.60;;;;;;5061817;28;20442;-57
2022/04/23 13:02:54;;;;;;;9.03;8.23;;;19.10;43.80;;;;;;5059064;28;20446;-59
2022/04/23 13:05:20;;;;;;;8.33;7.73;;;19.10;43.80;;;;;;5059063;28;20430;-59
2022/04/23 13:10:30;;;;;;;8.87;8.17;;;19.10;43.80;;;;;;5060926;28;20718;-57
2022/04/23 13:12:56;;;;;;;8.13;7.57;;;19.10;43.80;;;;;;5059124;28;20438;-59
2022/04/23 13:15:22;;;;;;;8.63;7.93;;;19.10;43.80;;;;;;5063947;28;20220;-57
2022/04/23 13:17:49;;;;;;;8.40;7.70;;;19.10;43.80;;;;;;5054564;28;20770;-58
2022/04/23 13:20:16;;;;;;;10.10;9.23;;;19.10;43.80;;;;;;5058267;28;20556;-56
2022/04/23 13:22:43;;;;;;;8.57;7.97;;;19.10;43.90;;;;;;5062548;28;20546;-57
2022/04/23 13:25:10;;;;;;;9.90;8.43;;;19.10;43.80;;;;;;5057771;28;20430;-58
2022/04/23 13:27:36;;;;;;;9.37;8.67;;;19.10;43.90;;;;;;5066644;28;21033;-57
2022/04/23 13:30:04;;;;;;;9.07;8.37;;;19.10;43.90;;;;;;5064841;28;20905;-57
2022/04/23 13:32:31;;;;;;;8.90;8.20;;;19.10;43.80;;;;;;5062119;28;20451;-57
2022/04/23 13:34:57;;;;;;;8.93;8.27;;;19.10;43.90;;;;;;5059772;28;20474;-57